MPDA/DAV METAR and TAF weather

Enter ICAO airport designator
Station Type Date Time Source
MPDA METAR 2019/12/08 11:00 UTC NOAA

MPDA 081100Z 06003KT 9999 FEW020 22/22 Q1011


Station Type Date Time Source
MPDA Decoded METAR 2019/12/08 11:00 UTC NOAA

David, Panama (MPDA) 08-24N 082-25W 26M
Dec 08, 2019 - 06:00 AM EST / 2019.12.08 1100 UTC
Wind: from the ENE (060 degrees) at 3 MPH (3 KT):0
Visibility: greater than 7 mile(s):0
Sky conditions: mostly clear
Temperature: 71 F (22 C)
Dew Point: 71 F (22 C)
Relative Humidity: 100%
Pressure (altimeter): 29.85 in. Hg (1011 hPa)
ob: MPDA 081100Z 06003KT 9999 FEW020 22/22 Q1011
cycle: 11

Station Type Date Time Source
MPDA TAF 2019/12/08 12:45 UTC NOAA

TAF TAF MPDA 081040Z 0812/0824 23006KT 9999 SCT018 PROB30
TEMPO 0820/0822 7000 SHRA SCT016CB SCT090

Example: see airport list